Time;durP1;ratioP1;P1;durP2;ratioP2;P2;SDS_P1;SDS_P2;PMS_P1;PMS_P2;Temp;Humidity;BMP_temperature;BMP_pressure;BME280_temperature;BME280_humidity;BME280_pressure;Samples;Min_cycle;Max_cycle;Signal;HPM_P1;HPM_P2
2023/05/26 00:00:26;;;;;;;13.30;7.10;;;;;;;15.50;100.00;100772.13;105861;1250;61831;-45
2023/05/26 00:02:53;;;;;;;11.70;6.90;;;;;;;15.50;100.00;100775.97;105987;1256;60361;-45
2023/05/26 00:05:21;;;;;;;10.50;7.00;;;;;;;15.49;100.00;100776.69;105836;1250;72604;-45
2023/05/26 00:07:49;;;;;;;11.50;7.60;;;;;;;15.49;100.00;100777.23;105853;1250;65137;-45
2023/05/26 00:10:17;;;;;;;12.10;7.30;;;;;;;15.47;100.00;100778.15;105897;1251;72992;-46
2023/05/26 00:12:44;;;;;;;12.40;8.40;;;;;;;15.46;100.00;100775.92;105594;1251;368722;-46
2023/05/26 00:18:13;;;;;;;12.10;7.60;;;;;;;15.44;100.00;100776.85;102978;1290;601120;-45
2023/05/26 00:20:41;;;;;;;12.00;7.80;;;;;;;15.41;100.00;100770.20;105119;1270;60408;-44
2023/05/26 00:23:09;;;;;;;11.20;7.10;;;;;;;15.39;100.00;100766.42;104852;1270;59276;-44
2023/05/26 00:25:37;;;;;;;12.70;7.60;;;;;;;15.37;100.00;100767.88;104948;1273;71061;-44
2023/05/26 00:28:04;;;;;;;17.30;6.60;;;;;;;15.36;100.00;100771.04;104879;1264;65404;-44
2023/05/26 00:30:32;;;;;;;7.20;6.10;;;;;;;15.35;100.00;100766.55;105343;1261;71471;-44
2023/05/26 00:32:59;;;;;;;9.30;6.30;;;;;;;15.35;100.00;100766.05;105429;1260;264088;-45
2023/05/26 00:35:27;;;;;;;8.20;6.10;;;;;;;15.34;100.00;100761.04;105620;1261;59788;-44
2023/05/26 00:37:55;;;;;;;10.30;6.30;;;;;;;15.32;100.00;100760.21;105634;1260;72033;-44
2023/05/26 00:40:22;;;;;;;12.60;5.90;;;;;;;15.32;100.00;100757.11;105665;1260;65670;-46
2023/05/26 00:42:50;;;;;;;11.50;5.90;;;;;;;15.32;100.00;100758.48;105585;1256;72581;-45
2023/05/26 00:45:18;;;;;;;9.00;6.40;;;;;;;15.33;100.00;100756.02;105669;1261;60844;-45
2023/05/26 00:47:45;;;;;;;12.80;6.00;;;;;;;15.33;100.00;100756.55;105585;1258;59974;-45
2023/05/26 00:50:13;;;;;;;11.70;6.20;;;;;;;15.33;100.00;100757.41;105590;1258;71763;-45
2023/05/26 00:52:42;;;;;;;10.10;6.10;;;;;;;15.32;100.00;100757.80;105555;1258;65267;-45
2023/05/26 00:55:09;;;;;;;7.20;6.10;;;;;;;15.31;100.00;100757.66;105450;1257;72610;-45
2023/05/26 00:57:38;;;;;;;15.10;6.50;;;;;;;15.31;100.00;100761.14;105471;1257;61570;-46
2023/05/26 01:00:09;;;;;;;9.70;5.90;;;;;;;15.33;100.00;100759.33;105649;1260;59666;-45
2023/05/26 01:02:39;;;;;;;8.80;5.40;;;;;;;15.33;100.00;100755.84;105613;1257;71770;-45
2023/05/26 01:05:08;;;;;;;8.20;5.90;;;;;;;15.33;100.00;100755.67;105598;1260;64115;-44
2023/05/26 01:07:36;;;;;;;8.30;5.70;;;;;;;15.31;100.00;100752.95;105621;1257;72699;-44
2023/05/26 01:10:05;;;;;;;6.70;5.90;;;;;;;15.30;100.00;100750.92;105564;1257;60444;-45
2023/05/26 01:12:56;;;;;;;6.90;5.40;;;;;;;15.28;100.00;100749.75;105714;1256;60084;-45
2023/05/26 01:15:33;;;;;;;9.50;6.40;;;;;;;15.28;100.00;100748.00;105881;1256;73039;-45
2023/05/26 01:18:16;;;;;;;7.10;6.00;;;;;;;15.29;100.00;100751.80;105715;1260;63928;-45
2023/05/26 01:21:08;;;;;;;13.80;5.40;;;;;;;15.31;100.00;100752.27;105781;1254;71398;-44
2023/05/26 01:23:51;;;;;;;10.60;5.70;;;;;;;15.32;100.00;100750.16;105908;1256;61625;-45
2023/05/26 01:26:55;;;;;;;11.20;5.40;;;;;;;15.31;100.00;100751.05;105705;1251;59765;-45
2023/05/26 01:29:23;;;;;;;15.70;5.30;;;;;;;15.30;100.00;100746.05;105829;1256;73021;-46
2023/05/26 01:31:51;;;;;;;12.70;6.10;;;;;;;15.30;100.00;100754.02;105691;1259;64104;-45
2023/05/26 01:34:19;;;;;;;14.30;6.80;;;;;;;15.31;100.00;100753.98;105872;1253;70643;-45
2023/05/26 01:36:49;;;;;;;7.80;5.50;;;;;;;15.32;100.00;100756.77;105708;1257;60543;-45
2023/05/26 01:39:16;;;;;;;16.00;4.80;;;;;;;15.33;100.00;100757.25;105703;1257;60312;-45
2023/05/26 01:41:52;;;;;;;8.10;5.00;;;;;;;15.33;100.00;100753.05;105846;1257;71226;-46
2023/05/26 01:44:21;;;;;;;;;;;;;;;15.33;100.00;100754.80;105876;1257;63940;-45
2023/05/26 01:46:50;;;;;;;6.30;5.40;;;;;;;15.34;100.00;100755.13;105832;1253;72611;-45
2023/05/26 01:49:22;;;;;;;10.20;5.50;;;;;;;15.34;100.00;100753.89;105812;1254;61680;-45
2023/05/26 01:51:51;;;;;;;7.60;5.30;;;;;;;15.35;100.00;100752.14;105844;1254;60049;-45
2023/05/26 01:54:20;;;;;;;7.20;5.20;;;;;;;15.34;100.00;100750.58;105851;1254;70470;-45
2023/05/26 01:56:49;;;;;;;10.40;5.70;;;;;;;15.35;100.00;100748.81;105839;1252;63830;-45
2023/05/26 01:59:19;;;;;;;9.70;6.00;;;;;;;15.36;100.00;100747.75;105690;1254;71462;-45
2023/05/26 02:01:47;;;;;;;10.00;6.10;;;;;;;15.37;100.00;100745.95;105721;1258;60628;-45
2023/05/26 02:04:16;;;;;;;9.20;5.80;;;;;;;15.39;100.00;100744.52;105829;1251;59672;-45
2023/05/26 02:06:46;;;;;;;10.90;6.00;;;;;;;15.40;100.00;100746.05;105672;1253;71871;-45
2023/05/26 02:09:15;;;;;;;8.00;5.40;;;;;;;15.41;100.00;100745.48;105744;1253;64075;-45
2023/05/26 02:11:45;;;;;;;8.90;6.40;;;;;;;15.42;100.00;100746.16;105714;1254;71247;-45
2023/05/26 02:14:14;;;;;;;7.60;5.70;;;;;;;15.43;100.00;100744.91;105705;1257;60499;-45
2023/05/26 02:16:41;;;;;;;9.80;6.30;;;;;;;15.44;100.00;100742.77;105675;1257;59959;-45
2023/05/26 02:19:09;;;;;;;9.40;6.60;;;;;;;15.45;100.00;100742.41;105670;1259;73059;-45
2023/05/26 02:21:37;;;;;;;12.50;6.50;;;;;;;15.46;100.00;100740.61;105680;1259;64017;-45
2023/05/26 02:24:05;;;;;;;11.80;6.20;;;;;;;15.46;100.00;100740.08;105704;1258;72675;-45
2023/05/26 02:26:33;;;;;;;9.50;5.90;;;;;;;15.46;100.00;100741.69;105851;1257;61656;-45
2023/05/26 02:29:01;;;;;;;7.90;5.80;;;;;;;15.45;100.00;100745.17;105638;1254;59592;-45
2023/05/26 02:31:29;;;;;;;17.50;6.50;;;;;;;15.46;100.00;100743.94;105686;1257;73002;-45
2023/05/26 02:34:10;;;;;;;17.30;6.10;;;;;;;15.48;100.00;100743.87;105695;1259;64062;-45
2023/05/26 02:36:38;;;;;;;11.30;6.00;;;;;;;15.50;100.00;100749.16;105879;1257;72666;-45
2023/05/26 02:39:05;;;;;;;11.30;5.20;;;;;;;15.54;100.00;100746.12;105781;1253;61825;-45
2023/05/26 02:41:33;;;;;;;12.70;5.50;;;;;;;15.56;100.00;100749.34;105672;1259;59626;-45
2023/05/26 02:44:02;;;;;;;8.40;5.90;;;;;;;15.58;100.00;100744.91;105683;1257;71954;-46
2023/05/26 02:46:29;;;;;;;11.20;6.10;;;;;;;15.61;100.00;100748.83;105825;1257;65156;-45
2023/05/26 02:49:00;;;;;;;7.20;5.30;;;;;;;15.64;100.00;100747.49;105823;1253;71516;-45
2023/05/26 02:51:28;;;;;;;10.90;5.80;;;;;;;15.67;100.00;100750.88;105664;1259;60533;-45
2023/05/26 02:53:56;;;;;;;7.80;6.10;;;;;;;15.69;100.00;100744.02;105699;1253;59736;-45
2023/05/26 02:56:23;;;;;;;7.30;5.10;;;;;;;15.72;100.00;100746.52;105686;1254;73111;-45
2023/05/26 02:58:51;;;;;;;16.60;6.30;;;;;;;15.73;100.00;100746.11;105660;1254;65372;-45
2023/05/26 03:01:18;;;;;;;16.10;6.20;;;;;;;15.76;100.00;100745.00;105672;1254;72720;-45
2023/05/26 03:03:46;;;;;;;6.80;6.10;;;;;;;15.79;100.00;100750.27;105800;1256;60424;-45
2023/05/26 03:06:14;;;;;;;11.40;6.20;;;;;;;15.82;100.00;100749.83;105728;1257;59950;-45
2023/05/26 03:08:42;;;;;;;9.90;6.30;;;;;;;15.84;100.00;100749.95;105902;1253;73016;-45
2023/05/26 03:11:10;;;;;;;8.50;6.10;;;;;;;15.87;100.00;100745.14;105683;1259;65302;-45
2023/05/26 03:13:40;;;;;;;18.70;6.70;;;;;;;15.90;100.00;100743.46;105804;1253;71769;-46
2023/05/26 03:16:08;;;;;;;18.20;6.60;;;;;;;15.93;100.00;100743.70;105672;1259;60526;-45
2023/05/26 03:18:37;;;;;;;10.00;6.10;;;;;;;15.98;100.00;100740.95;105693;1254;59593;-45
2023/05/26 03:21:06;;;;;;;13.70;7.60;;;;;;;16.01;100.00;100743.27;105816;1251;71448;-45
2023/05/26 03:23:54;;;;;;;13.30;7.70;;;;;;;16.03;100.00;100746.48;105820;1252;64422;-44
2023/05/26 03:26:22;;;;;;;16.00;7.40;;;;;;;16.06;100.00;100746.59;105734;1258;71708;-44
2023/05/26 03:28:50;;;;;;;10.90;6.70;;;;;;;16.10;100.00;100747.82;105650;1253;61054;-45
2023/05/26 03:31:17;;;;;;;8.50;6.80;;;;;;;16.16;100.00;100748.61;105721;1253;60242;-45
2023/05/26 03:33:45;;;;;;;19.90;8.50;;;;;;;16.21;100.00;100746.55;105824;1252;71621;-44
2023/05/26 03:36:13;;;;;;;17.90;7.20;;;;;;;16.23;100.00;100750.63;105739;1254;64210;-45
2023/05/26 03:38:41;;;;;;;13.90;8.40;;;;;;;16.27;100.00;100755.54;105719;1257;71395;-45
2023/05/26 03:41:09;;;;;;;16.00;8.00;;;;;;;16.30;100.00;100760.46;105674;1254;62018;-44
2023/05/26 03:43:44;;;;;;;18.60;9.90;;;;;;;16.34;100.00;100761.56;105687;1254;59566;-45
2023/05/26 03:46:12;;;;;;;13.60;8.50;;;;;;;16.39;100.00;100760.83;105669;1259;73099;-45
2023/05/26 03:48:40;;;;;;;17.50;9.60;;;;;;;16.50;100.00;100761.97;105676;1253;65169;-45
2023/05/26 03:51:07;;;;;;;14.50;8.40;;;;;;;16.63;100.00;100764.61;105684;1260;72635;-45
2023/05/26 03:53:35;;;;;;;21.20;8.20;;;;;;;16.78;100.00;100762.16;105690;1254;60393;-46
2023/05/26 03:56:04;;;;;;;24.40;9.00;;;;;;;16.94;100.00;100762.05;105647;1254;59548;-45
2023/05/26 03:58:32;;;;;;;13.80;8.40;;;;;;;17.06;100.00;100762.61;105699;1252;71832;-45
2023/05/26 04:01:00;;;;;;;11.50;8.20;;;;;;;17.24;100.00;100768.89;105657;1256;65150;-45
2023/05/26 04:03:28;;;;;;;39.10;9.50;;;;;;;17.41;100.00;100770.25;105661;1254;72676;-45
2023/05/26 04:05:59;;;;;;;18.60;8.30;;;;;;;17.60;100.00;100774.38;105688;1253;60670;-45
2023/05/26 04:08:28;;;;;;;13.20;8.60;;;;;;;17.81;100.00;100781.33;105692;1252;60058;-45
2023/05/26 04:10:56;;;;;;;45.90;8.90;;;;;;;18.00;100.00;100784.34;105741;1253;73451;-45
2023/05/26 04:13:24;;;;;;;23.20;8.80;;;;;;;18.20;100.00;100791.16;105719;1254;64080;-45
2023/05/26 04:15:52;;;;;;;10.20;7.80;;;;;;;18.41;100.00;100797.17;105669;1254;71454;-46
2023/05/26 04:18:21;;;;;;;12.50;7.70;;;;;;;18.61;100.00;100805.88;105639;1257;59870;-45
2023/05/26 04:20:49;;;;;;;14.20;9.00;;;;;;;18.80;100.00;100810.77;105725;1259;59546;-44
2023/05/26 04:23:17;;;;;;;16.80;8.10;;;;;;;18.97;100.00;100823.09;105685;1254;71877;-44
2023/05/26 04:25:45;;;;;;;14.00;7.80;;;;;;;19.15;100.00;100840.45;105672;1256;64067;-45
2023/05/26 04:28:34;;;;;;;11.40;7.00;;;;;;;19.28;100.00;100871.15;105675;1254;71089;-44
2023/05/26 04:31:23;;;;;;;8.60;7.10;;;;;;;19.36;100.00;100903.50;105650;1257;60547;-45
2023/05/26 04:34:21;;;;;;;10.60;6.80;;;;;;;19.45;100.00;100942.95;105483;1254;60556;-43
2023/05/26 04:36:56;;;;;;;12.30;7.50;;;;;;;19.49;100.00;100986.64;105655;1254;72936;-45
2023/05/26 04:39:25;;;;;;;12.10;7.90;;;;;;;19.54;100.00;101030.00;105696;1255;64130;-45
2023/05/26 04:41:52;;;;;;;11.00;6.90;;;;;;;19.61;100.00;101068.55;105623;1253;72743;-45
2023/05/26 04:44:22;;;;;;;8.30;6.80;;;;;;;19.62;100.00;101096.67;105499;1254;60708;-45
2023/05/26 04:46:50;;;;;;;10.30;6.70;;;;;;;19.60;100.00;101122.02;105679;1254;60493;-44
2023/05/26 04:49:17;;;;;;;15.00;7.40;;;;;;;19.56;100.00;101142.99;105676;1253;72644;-44
2023/05/26 04:51:45;;;;;;;13.20;9.00;;;;;;;19.56;100.00;101147.40;105650;1259;64017;-45
2023/05/26 04:54:13;;;;;;;13.90;8.00;;;;;;;19.62;100.00;101150.60;105644;1254;70976;-44
2023/05/26 04:56:40;;;;;;;13.20;8.80;;;;;;;19.71;100.00;101141.28;105718;1256;60752;-44
2023/05/26 04:59:08;;;;;;;13.60;8.20;;;;;;;19.81;100.00;101140.46;105660;1253;60594;-44
2023/05/26 05:01:37;;;;;;;11.50;6.80;;;;;;;19.86;100.00;101130.80;105684;1259;73856;-44
2023/05/26 05:04:31;;;;;;;7.80;7.00;;;;;;;19.88;100.00;101112.87;105660;1259;65164;-44
2023/05/26 05:06:59;;;;;;;10.30;7.80;;;;;;;19.85;100.00;101098.27;105673;1253;71661;-43
2023/05/26 05:09:27;;;;;;;13.60;7.10;;;;;;;19.81;100.00;101068.46;105608;1260;61616;-43
2023/05/26 05:11:55;;;;;;;19.60;7.80;;;;;;;19.88;100.00;101064.14;105691;1254;60420;-44
2023/05/26 05:14:22;;;;;;;10.50;6.90;;;;;;;19.99;100.00;101055.06;105651;1256;73735;-44
2023/05/26 05:16:51;;;;;;;9.60;6.40;;;;;;;20.04;100.00;101026.45;105617;1253;63946;-45
2023/05/26 05:19:19;;;;;;;10.80;6.90;;;;;;;19.99;100.00;100997.63;105676;1259;71389;-45
2023/05/26 05:21:51;;;;;;;26.10;6.40;;;;;;;20.02;100.00;100992.89;105776;1253;60592;-44
2023/05/26 05:24:19;;;;;;;10.00;6.00;;;;;;;20.19;100.00;100995.92;105684;1252;60592;-44
2023/05/26 05:26:47;;;;;;;9.10;6.20;;;;;;;20.37;100.00;100974.70;105643;1253;72663;-44
2023/05/26 05:29:18;;;;;;;15.20;6.60;;;;;;;20.57;100.00;100929.68;105725;1254;64169;-43
2023/05/26 05:31:48;;;;;;;8.90;5.60;;;;;;;20.68;100.00;100856.16;105829;1257;70448;-47
2023/05/26 05:34:16;;;;;;;10.10;5.50;;;;;;;20.72;100.00;100767.92;105676;1257;60491;-46
2023/05/26 05:36:45;;;;;;;13.10;5.70;;;;;;;20.74;100.00;100702.92;105760;1253;60541;-47
2023/05/26 05:39:13;;;;;;;10.70;5.10;;;;;;;20.78;100.00;100657.15;105663;1253;72689;-46
2023/05/26 05:41:41;;;;;;;8.30;4.60;;;;;;;20.75;100.00;100607.48;105685;1253;65498;-44
2023/05/26 05:44:08;;;;;;;5.50;5.00;;;;;;;20.72;100.00;100583.13;105672;1256;71444;-44
2023/05/26 05:46:37;;;;;;;8.40;4.90;;;;;;;20.76;100.00;100571.52;105850;1252;60572;-45
2023/05/26 05:49:20;;;;;;;6.50;4.80;;;;;;;20.76;100.00;100551.53;105867;1253;60364;-45
2023/05/26 05:51:50;;;;;;;5.40;4.10;;;;;;;20.77;100.00;100543.38;105815;1253;72407;-46
2023/05/26 05:54:17;;;;;;;7.00;4.40;;;;;;;20.82;100.00;100550.13;105845;1257;64120;-45
2023/05/26 05:56:46;;;;;;;8.20;4.30;;;;;;;20.87;100.00;100542.98;105943;1252;71666;-45
2023/05/26 05:59:16;;;;;;;7.20;4.50;;;;;;;20.90;100.00;100510.71;105728;1257;60557;-45
2023/05/26 06:01:44;;;;;;;7.10;3.90;;;;;;;20.83;100.00;100476.78;105907;1257;60409;-45
2023/05/26 06:04:13;;;;;;;6.30;4.90;;;;;;;20.76;100.00;100483.13;105715;1253;73795;-45
2023/05/26 06:06:41;;;;;;;5.20;4.10;;;;;;;20.72;100.00;100498.42;105687;1257;64220;-45
2023/05/26 06:09:09;;;;;;;4.90;4.10;;;;;;;20.75;100.00;100498.09;105876;1257;72736;-44
2023/05/26 06:11:37;;;;;;;7.90;4.20;;;;;;;20.89;100.00;100509.40;105851;1255;60480;-45
2023/05/26 06:14:05;;;;;;;10.50;4.20;;;;;;;20.96;100.00;100500.20;105867;1257;60738;-45
2023/05/26 06:16:33;;;;;;;5.80;4.20;;;;;;;20.99;100.00;100498.30;105832;1253;72607;-45
2023/05/26 06:19:01;;;;;;;7.70;4.00;;;;;;;21.09;100.00;100502.58;105845;1257;65177;-45
2023/05/26 06:21:28;;;;;;;8.50;3.90;;;;;;;21.24;100.00;100505.64;105664;1258;72704;-46
2023/05/26 06:23:57;;;;;;;10.30;4.00;;;;;;;21.33;100.00;100483.33;105654;1256;60589;-44
2023/05/26 06:26:26;;;;;;;6.20;3.80;;;;;;;21.44;100.00;100465.27;105679;1253;60479;-44
2023/05/26 06:28:54;;;;;;;6.80;4.30;;;;;;;21.57;100.00;100450.04;105690;1253;72776;-45
2023/05/26 06:31:21;;;;;;;14.40;4.40;;;;;;;21.53;100.00;100411.83;105671;1257;64449;-44
2023/05/26 06:34:05;;;;;;;6.00;4.00;;;;;;;21.59;100.00;100426.06;105817;1254;72726;-45
2023/05/26 06:36:33;;;;;;;6.90;4.30;;;;;;;21.77;100.00;100445.79;105721;1257;60643;-45
2023/05/26 06:39:01;;;;;;;13.60;4.10;;;;;;;21.82;100.00;100428.58;105867;1257;60564;-45
2023/05/26 06:41:32;;;;;;;4.80;3.70;;;;;;;21.86;100.00;100416.64;105887;1257;73914;-45
2023/05/26 06:43:59;;;;;;;8.20;3.90;;;;;;;21.95;100.00;100417.43;105683;1257;63936;-45
2023/05/26 06:46:27;;;;;;;14.90;4.60;;;;;;;21.94;100.00;100401.86;105812;1255;71432;-46
2023/05/26 06:48:55;;;;;;;14.00;4.80;;;;;;;21.96;100.00;100397.16;105826;1254;60572;-45
2023/05/26 06:51:30;;;;;;;7.70;4.40;;;;;;;22.24;100.00;100399.33;105633;1258;61099;-44
2023/05/26 06:53:58;;;;;;;6.70;4.20;;;;;;;22.56;100.00;100394.36;105874;1253;72884;-44
2023/05/26 06:56:26;;;;;;;4.60;4.00;;;;;;;22.75;100.00;100389.02;105878;1253;64092;-45
2023/05/26 06:58:54;;;;;;;57.10;5.80;;;;;;;22.83;100.00;100382.28;105693;1253;72618;-45
2023/05/26 07:01:22;;;;;;;9.50;4.60;;;;;;;22.81;100.00;100386.41;105878;1253;60526;-44
2023/05/26 07:03:50;;;;;;;5.00;4.50;;;;;;;22.91;100.00;100392.27;105715;1257;60405;-45
2023/05/26 07:06:17;;;;;;;8.60;4.20;;;;;;;22.89;100.00;100401.35;105686;1253;73846;-45
2023/05/26 07:08:46;;;;;;;13.20;4.40;;;;;;;22.93;100.00;100397.18;105869;1257;64218;-44
2023/05/26 07:11:19;;;;;;;6.00;3.90;;;;;;;23.14;100.00;100392.18;105808;1254;71428;-45
2023/05/26 07:13:52;;;;;;;11.20;4.40;;;;;;;23.41;100.00;100387.12;105813;1253;60439;-45
2023/05/26 07:16:20;;;;;;;10.20;4.10;;;;;;;23.75;100.00;100391.67;105686;1253;60470;-46
2023/05/26 07:18:48;;;;;;;5.90;4.40;;;;;;;23.79;100.00;100403.48;105692;1258;73175;-45
2023/05/26 07:21:18;;;;;;;8.30;4.10;;;;;;;23.53;100.00;100430.44;105659;1254;64495;-45
2023/05/26 07:23:48;;;;;;;12.40;4.50;;;;;;;23.22;100.00;100436.64;105710;1258;73149;-45
2023/05/26 07:26:15;;;;;;;6.90;4.00;;;;;;;23.16;100.00;100437.61;105576;1260;60560;-45
2023/05/26 07:28:44;;;;;;;17.70;3.90;;;;;;;23.08;100.00;100437.86;105677;1253;60359;-45
2023/05/26 07:31:11;;;;;;;23.90;4.70;;;;;;;22.89;100.00;100438.48;105658;1254;72663;-45
2023/05/26 07:33:41;;;;;;;5.90;4.20;;;;;;;22.52;100.00;100437.64;105656;1253;64479;-47
2023/05/26 07:36:08;;;;;;;6.80;4.10;;;;;;;22.30;100.00;100428.58;105503;1257;75459;-45
2023/05/26 07:38:37;;;;;;;7.00;4.30;;;;;;;22.09;100.00;100428.39;105654;1259;61834;-46
2023/05/26 07:41:05;;;;;;;11.30;3.60;;;;;;;21.88;100.00;100436.30;105625;1258;60445;-46
2023/05/26 07:43:32;;;;;;;9.20;4.60;;;;;;;21.63;100.00;100448.63;105651;1253;73143;-44
2023/05/26 07:46:01;;;;;;;10.80;4.30;;;;;;;21.36;100.00;100472.61;105626;1253;63963;-45
2023/05/26 07:48:28;;;;;;;14.40;4.10;;;;;;;21.10;100.00;100511.30;105639;1258;71453;-46
2023/05/26 07:50:56;;;;;;;7.70;3.90;;;;;;;20.80;100.00;100553.06;105610;1253;60523;-44
2023/05/26 07:53:24;;;;;;;8.10;4.30;;;;;;;20.50;100.00;100608.44;105704;1253;60387;-44
2023/05/26 07:55:51;;;;;;;11.90;4.60;;;;;;;20.10;100.00;100663.21;105615;1253;72259;-45
2023/05/26 07:58:19;;;;;;;17.90;4.70;;;;;;;19.74;100.00;100749.52;105674;1253;65152;-45
2023/05/26 08:00:47;;;;;;;5.90;4.30;;;;;;;19.49;100.00;100837.90;105623;1253;71538;-45
2023/05/26 08:03:14;;;;;;;12.90;5.00;;;;;;;19.27;100.00;100919.98;105645;1257;60557;-44
2023/05/26 08:05:43;;;;;;;10.20;4.60;;;;;;;19.03;100.00;100988.59;105807;1256;60400;-45
2023/05/26 08:50:24;;;;;;;6.80;3.30;;;;;;;17.00;100.00;101038.83;102721;1294;600932;-45
2023/05/26 08:52:52;;;;;;;8.20;2.90;;;;;;;16.86;100.00;101023.44;104779;1268;60383;-46
2023/05/26 08:55:39;;;;;;;8.20;3.00;;;;;;;16.70;100.00;101012.84;105402;1263;59298;-46
2023/05/26 08:58:07;;;;;;;8.60;3.40;;;;;;;16.56;100.00;101005.30;105534;1257;70996;-46
2023/05/26 09:00:35;;;;;;;9.50;3.10;;;;;;;16.45;100.00;100996.29;105482;1258;64527;-46
2023/05/26 09:03:03;;;;;;;6.90;2.40;;;;;;;16.35;100.00;100986.16;105361;1261;209310;-46
2023/05/26 09:05:31;;;;;;;10.20;3.00;;;;;;;16.24;100.00;100977.13;105606;1257;60409;-46
2023/05/26 09:07:58;;;;;;;15.80;4.00;;;;;;;16.08;100.00;100973.47;105615;1255;59205;-46
2023/05/26 09:10:30;;;;;;;7.30;2.50;;;;;;;15.97;100.00;100969.99;105620;1260;72273;-46
2023/05/26 09:13:08;;;;;;;8.50;2.90;;;;;;;15.87;100.00;100968.06;105639;1257;64041;-46
2023/05/26 09:15:37;;;;;;;6.80;2.90;;;;;;;15.75;100.00;100965.25;105636;1258;72697;-46
2023/05/26 09:18:10;;;;;;;12.10;3.20;;;;;;;15.67;100.00;100961.17;105618;1259;60359;-46
2023/05/26 09:20:45;;;;;;;10.00;3.20;;;;;;;15.62;100.00;100962.73;105646;1257;60060;-46
2023/05/26 09:23:14;;;;;;;12.90;3.30;;;;;;;15.60;100.00;100967.52;105616;1255;71839;-46
2023/05/26 09:25:44;;;;;;;6.70;2.70;;;;;;;15.56;100.00;100972.14;105622;1260;64130;-46
2023/05/26 09:28:12;;;;;;;6.40;3.30;;;;;;;15.53;100.00;100969.64;105637;1257;72656;-46
2023/05/26 09:30:46;;;;;;;7.10;3.20;;;;;;;15.49;100.00;100968.17;105928;1256;60513;-46
2023/05/26 09:33:16;;;;;;;3.80;2.80;;;;;;;15.43;100.00;100972.01;105929;1257;59659;-46
2023/05/26 09:35:45;;;;;;;7.50;2.70;;;;;;;15.39;100.00;100968.30;105957;1256;73049;-46
2023/05/26 09:38:15;;;;;;;8.60;3.00;;;;;;;15.35;100.00;100968.25;105893;1257;65310;-46
2023/05/26 09:40:47;;;;;;;12.10;3.20;;;;;;;15.28;100.00;100962.91;105888;1256;72627;-46
2023/05/26 09:43:19;;;;;;;9.80;2.80;;;;;;;15.25;100.00;100951.33;105922;1253;60184;-46
2023/05/26 09:45:47;;;;;;;11.50;2.90;;;;;;;15.26;100.00;100948.02;105896;1256;59749;-46
2023/05/26 09:48:15;;;;;;;11.10;3.10;;;;;;;15.26;100.00;100942.27;105714;1254;71758;-45
2023/05/26 09:50:43;;;;;;;6.30;2.40;;;;;;;15.26;100.00;100938.42;105748;1258;65210;-45
2023/05/26 09:53:10;;;;;;;11.50;2.90;;;;;;;15.27;100.00;100924.31;105661;1254;71205;-45
2023/05/26 09:55:39;;;;;;;10.40;2.80;;;;;;;15.28;100.00;100910.73;105689;1255;60506;-46
2023/05/26 09:58:08;;;;;;;10.20;2.80;;;;;;;15.30;100.00;100904.27;105697;1254;59995;-46
2023/05/26 10:00:38;;;;;;;11.20;3.40;;;;;;;15.32;100.00;100900.55;105695;1259;73025;-45
2023/05/26 10:03:07;;;;;;;8.10;3.20;;;;;;;15.35;100.00;100891.39;105714;1254;64060;-46
2023/05/26 10:05:39;;;;;;;8.80;3.40;;;;;;;15.41;100.00;100892.61;105698;1254;71491;-45
2023/05/26 10:08:07;;;;;;;11.40;3.10;;;;;;;15.45;100.00;100895.96;105674;1254;60456;-46
2023/05/26 10:10:35;;;;;;;10.30;3.50;;;;;;;15.50;100.00;100896.31;105675;1259;59752;-46
2023/05/26 10:13:03;;;;;;;9.40;2.90;;;;;;;15.58;100.00;100900.96;105695;1253;71833;-46
2023/05/26 10:15:31;;;;;;;9.70;3.30;;;;;;;15.60;100.00;100905.94;105659;1259;63997;-46
2023/05/26 10:18:01;;;;;;;7.80;3.00;;;;;;;15.66;100.00;100903.45;105644;1254;72753;-46
2023/05/26 10:20:29;;;;;;;8.10;3.30;;;;;;;15.72;100.00;100900.65;105693;1254;61770;-46
2023/05/26 10:23:09;;;;;;;6.20;2.80;;;;;;;15.82;100.00;100901.72;105586;1254;60008;-46
2023/05/26 10:25:56;;;;;;;8.60;2.80;;;;;;;15.95;100.00;100904.97;105625;1258;71749;-46
2023/05/26 10:28:25;;;;;;;;;;;;;;;16.11;100.00;100899.55;105888;1258;63771;-45
2023/05/26 10:31:00;;;;;;;8.50;3.20;;;;;;;16.24;100.00;100895.29;105707;1255;72734;-44
2023/05/26 10:33:42;;;;;;;8.50;3.50;;;;;;;16.35;100.00;100893.32;105690;1260;60544;-45
2023/05/26 10:36:14;;;;;;;8.20;2.80;;;;;;;16.52;100.00;100894.14;105729;1255;59981;-46
2023/05/26 10:38:46;;;;;;;7.40;2.60;;;;;;;16.66;100.00;100888.38;105697;1255;72871;-46
2023/05/26 10:41:34;;;;;;;4.40;2.50;;;;;;;16.72;100.00;100886.23;105695;1254;64433;-45
2023/05/26 10:44:02;;;;;;;7.40;3.10;;;;;;;16.72;100.00;100884.01;105628;1254;72579;-45
2023/05/26 10:46:44;;;;;;;8.20;3.30;;;;;;;16.75;100.00;100885.27;105676;1259;61115;-45
2023/05/26 10:49:19;;;;;;;5.60;3.10;;;;;;;16.86;100.00;100886.27;105674;1259;59653;-45
2023/05/26 10:51:57;;;;;;;6.90;3.10;;;;;;;17.00;100.00;100876.86;105688;1259;71792;-45
2023/05/26 10:54:24;;;;;;;10.00;3.90;;;;;;;17.17;100.00;100869.40;105682;1259;64024;-44
2023/05/26 10:56:53;;;;;;;10.50;3.20;;;;;;;17.35;100.00;100870.99;105706;1256;71350;-45
2023/05/26 10:59:35;;;;;;;5.80;2.90;;;;;;;17.54;100.00;100864.44;105711;1259;60641;-44
2023/05/26 11:02:04;;;;;;;7.00;3.10;;;;;;;17.71;100.00;100858.67;105706;1259;59583;-44
2023/05/26 11:04:45;;;;;;;8.40;3.20;;;;;;;17.86;100.00;100861.57;105732;1258;71778;-44
2023/05/26 11:07:19;;;;;;;7.10;3.20;;;;;;;17.96;100.00;100866.91;105695;1254;64524;-45
2023/05/26 11:10:02;;;;;;;6.40;3.30;;;;;;;18.11;100.00;100871.00;105656;1259;71482;-43
2023/05/26 11:12:54;;;;;;;5.40;3.20;;;;;;;18.29;100.00;100874.41;105685;1259;61716;-45
2023/05/26 11:15:32;;;;;;;7.90;3.20;;;;;;;18.59;100.00;100877.44;105716;1259;59653;-44
2023/05/26 11:18:01;;;;;;;9.20;3.40;;;;;;;18.80;100.00;100889.11;105689;1259;73006;-44
2023/05/26 11:20:29;;;;;;;9.70;3.10;;;;;;;18.94;100.00;100906.09;105713;1259;63016;-43
2023/05/26 11:22:58;;;;;;;11.70;3.30;;;;;;;19.13;100.00;100913.98;105730;1260;72613;-43
2023/05/26 11:25:25;;;;;;;8.10;2.80;;;;;;;19.38;100.00;100926.45;105800;1254;61623;-43
2023/05/26 11:27:53;;;;;;;5.80;2.50;;;;;;;19.62;100.00;100946.16;105695;1260;59644;-46
2023/05/26 11:30:20;;;;;;;8.30;3.50;;;;;;;19.82;100.00;100975.27;105681;1260;71846;-45
2023/05/26 11:32:51;;;;;;;2.90;2.50;;;;;;;19.96;100.00;101009.86;105710;1254;64095;-44
2023/05/26 11:35:23;;;;;;;12.30;3.20;;;;;;;20.10;100.00;101048.55;105680;1259;71366;-45
2023/05/26 11:37:51;;;;;;;5.20;2.70;;;;;;;20.35;100.00;101090.46;105712;1259;61639;-45
2023/05/26 11:40:19;;;;;;;5.20;2.60;;;;;;;20.57;100.00;101113.21;105738;1267;59749;-50
2023/05/26 11:42:55;;;;;;;26.80;3.40;;;;;;;20.83;100.00;101114.38;105686;1254;71803;-44
2023/05/26 11:45:23;;;;;;;7.90;2.50;;;;;;;21.22;100.00;101083.23;105725;1260;64983;-44
2023/05/26 11:47:51;;;;;;;6.10;2.80;;;;;;;21.65;100.00;101001.28;105657;1255;72630;-44
2023/05/26 11:50:19;;;;;;;3.50;2.40;;;;;;;22.02;100.00;100892.33;105689;1259;60391;-46
2023/05/26 11:52:47;;;;;;;5.80;2.30;;;;;;;22.35;100.00;100759.72;105668;1260;59541;-44
2023/05/26 11:55:17;;;;;;;11.40;3.10;;;;;;;22.44;100.00;100556.55;105704;1267;72899;-44
2023/05/26 11:57:46;;;;;;;7.60;2.80;;;;;;;22.50;100.00;100455.91;105724;1259;65236;-44
2023/05/26 12:00:18;;;;;;;7.40;2.20;;;;;;;22.65;100.00;100382.63;105704;1257;71879;-45
2023/05/26 12:02:46;;;;;;;4.30;2.50;;;;;;;22.75;100.00;100334.43;105716;1259;59746;-44
2023/05/26 12:05:28;;;;;;;4.20;1.90;;;;;;;22.85;100.00;100323.70;105707;1259;59542;-44